<?xml version="1.0" encoding="UTF-8" standalone="no" ?>
<gpx xmlns="http://www.topografix.com/GPX/1/1" xmlns:xsi="http://www.w3.org/2001/XMLSchema-instance" xsi:schemaLocation="http://www.topografix.com/GPX/1/1 http://www.topografix.com/GPX/1/1/gpx.xsd" version="1.1" creator="VisuGPX - https://www.visugpx.com">
  <metadata>
    <name>Urau Castelbiague</name>
    <desc><![CDATA[à faire par temps sec]]></desc>
  </metadata>
  <trk>
    <name><![CDATA[Randonnée du 26/03/2022 à 13:35]]></name>
    <trkseg>
      <trkpt lat="43.01761" lon="0.95556">
        <ele>499</ele>
        <time>2022-03-26T13:35:55+01:00</time>
      </trkpt>
      <trkpt lat="43.0174" lon="0.95549">
        <ele>500</ele>
        <time>2022-03-26T13:36:09+01:00</time>
      </trkpt>
      <trkpt lat="43.01722" lon="0.95539">
        <ele>506</ele>
        <time>2022-03-26T13:36:30+01:00</time>
      </trkpt>
      <trkpt lat="43.01707" lon="0.95555">
        <ele>507</ele>
        <time>2022-03-26T13:36:40+01:00</time>
      </trkpt>
      <trkpt lat="43.01689" lon="0.95571">
        <ele>506</ele>
        <time>2022-03-26T13:36:54+01:00</time>
      </trkpt>
      <trkpt lat="43.01667" lon="0.95572">
        <ele>505</ele>
        <time>2022-03-26T13:37:05+01:00</time>
      </trkpt>
      <trkpt lat="43.01649" lon="0.95573">
        <ele>505</ele>
        <time>2022-03-26T13:37:18+01:00</time>
      </trkpt>
      <trkpt lat="43.01629" lon="0.95575">
        <ele>505</ele>
        <time>2022-03-26T13:37:33+01:00</time>
      </trkpt>
      <trkpt lat="43.01624" lon="0.9555">
        <ele>505</ele>
        <time>2022-03-26T13:37:58+01:00</time>
      </trkpt>
      <trkpt lat="43.0162" lon="0.95524">
        <ele>505</ele>
        <time>2022-03-26T13:38:16+01:00</time>
      </trkpt>
      <trkpt lat="43.01602" lon="0.95509">
        <ele>504</ele>
        <time>2022-03-26T13:38:31+01:00</time>
      </trkpt>
      <trkpt lat="43.01592" lon="0.95486">
        <ele>504</ele>
        <time>2022-03-26T13:38:45+01:00</time>
      </trkpt>
      <trkpt lat="43.01577" lon="0.95469">
        <ele>504</ele>
        <time>2022-03-26T13:39:00+01:00</time>
      </trkpt>
      <trkpt lat="43.01582" lon="0.95445">
        <ele>504</ele>
        <time>2022-03-26T13:39:13+01:00</time>
      </trkpt>
      <trkpt lat="43.01592" lon="0.95424">
        <ele>504</ele>
        <time>2022-03-26T13:39:29+01:00</time>
      </trkpt>
      <trkpt lat="43.01599" lon="0.95398">
        <ele>506</ele>
        <time>2022-03-26T13:39:49+01:00</time>
      </trkpt>
      <trkpt lat="43.016" lon="0.95373">
        <ele>505</ele>
        <time>2022-03-26T13:40:08+01:00</time>
      </trkpt>
      <trkpt lat="43.01607" lon="0.95347">
        <ele>503</ele>
        <time>2022-03-26T13:40:25+01:00</time>
      </trkpt>
      <trkpt lat="43.01612" lon="0.95323">
        <ele>502</ele>
        <time>2022-03-26T13:40:43+01:00</time>
      </trkpt>
      <trkpt lat="43.01617" lon="0.95297">
        <ele>501</ele>
        <time>2022-03-26T13:41:02+01:00</time>
      </trkpt>
      <trkpt lat="43.0162" lon="0.95271">
        <ele>502</ele>
        <time>2022-03-26T13:41:21+01:00</time>
      </trkpt>
      <trkpt lat="43.01632" lon="0.95248">
        <ele>498</ele>
        <time>2022-03-26T13:41:43+01:00</time>
      </trkpt>
      <trkpt lat="43.0164" lon="0.95224">
        <ele>494</ele>
        <time>2022-03-26T13:41:59+01:00</time>
      </trkpt>
      <trkpt lat="43.01644" lon="0.95199">
        <ele>493</ele>
        <time>2022-03-26T13:42:20+01:00</time>
      </trkpt>
      <trkpt lat="43.01649" lon="0.95172">
        <ele>491</ele>
        <time>2022-03-26T13:42:40+01:00</time>
      </trkpt>
      <trkpt lat="43.01652" lon="0.95147">
        <ele>490</ele>
        <time>2022-03-26T13:42:57+01:00</time>
      </trkpt>
      <trkpt lat="43.01655" lon="0.95122">
        <ele>491</ele>
        <time>2022-03-26T13:43:14+01:00</time>
      </trkpt>
      <trkpt lat="43.01659" lon="0.95096">
        <ele>489</ele>
        <time>2022-03-26T13:43:31+01:00</time>
      </trkpt>
      <trkpt lat="43.01661" lon="0.95069">
        <ele>490</ele>
        <time>2022-03-26T13:43:48+01:00</time>
      </trkpt>
      <trkpt lat="43.01664" lon="0.95044">
        <ele>491</ele>
        <time>2022-03-26T13:44:05+01:00</time>
      </trkpt>
      <trkpt lat="43.01667" lon="0.95019">
        <ele>489</ele>
        <time>2022-03-26T13:44:22+01:00</time>
      </trkpt>
      <trkpt lat="43.0167" lon="0.94994">
        <ele>488</ele>
        <time>2022-03-26T13:44:39+01:00</time>
      </trkpt>
      <trkpt lat="43.01674" lon="0.94969">
        <ele>487</ele>
        <time>2022-03-26T13:44:56+01:00</time>
      </trkpt>
      <trkpt lat="43.01677" lon="0.94943">
        <ele>486</ele>
        <time>2022-03-26T13:45:16+01:00</time>
      </trkpt>
      <trkpt lat="43.0168" lon="0.94917">
        <ele>487</ele>
        <time>2022-03-26T13:45:33+01:00</time>
      </trkpt>
      <trkpt lat="43.01685" lon="0.94892">
        <ele>485</ele>
        <time>2022-03-26T13:45:50+01:00</time>
      </trkpt>
      <trkpt lat="43.01691" lon="0.94865">
        <ele>485</ele>
        <time>2022-03-26T13:46:09+01:00</time>
      </trkpt>
      <trkpt lat="43.01695" lon="0.94839">
        <ele>486</ele>
        <time>2022-03-26T13:46:26+01:00</time>
      </trkpt>
      <trkpt lat="43.01698" lon="0.94815">
        <ele>485</ele>
        <time>2022-03-26T13:46:43+01:00</time>
      </trkpt>
      <trkpt lat="43.01703" lon="0.94788">
        <ele>482</ele>
        <time>2022-03-26T13:47:00+01:00</time>
      </trkpt>
      <trkpt lat="43.01709" lon="0.94761">
        <ele>480</ele>
        <time>2022-03-26T13:47:22+01:00</time>
      </trkpt>
      <trkpt lat="43.0171" lon="0.94735">
        <ele>478</ele>
        <time>2022-03-26T13:47:41+01:00</time>
      </trkpt>
      <trkpt lat="43.01713" lon="0.9471">
        <ele>479</ele>
        <time>2022-03-26T13:47:59+01:00</time>
      </trkpt>
      <trkpt lat="43.01719" lon="0.94683">
        <ele>478</ele>
        <time>2022-03-26T13:48:18+01:00</time>
      </trkpt>
      <trkpt lat="43.01716" lon="0.94656">
        <ele>474</ele>
        <time>2022-03-26T13:48:34+01:00</time>
      </trkpt>
      <trkpt lat="43.01715" lon="0.94628">
        <ele>472</ele>
        <time>2022-03-26T13:48:54+01:00</time>
      </trkpt>
      <trkpt lat="43.01718" lon="0.94603">
        <ele>474</ele>
        <time>2022-03-26T13:49:11+01:00</time>
      </trkpt>
      <trkpt lat="43.01722" lon="0.94577">
        <ele>472</ele>
        <time>2022-03-26T13:49:27+01:00</time>
      </trkpt>
      <trkpt lat="43.01726" lon="0.94552">
        <ele>473</ele>
        <time>2022-03-26T13:49:44+01:00</time>
      </trkpt>
      <trkpt lat="43.01729" lon="0.94527">
        <ele>465</ele>
        <time>2022-03-26T13:50:03+01:00</time>
      </trkpt>
      <trkpt lat="43.01728" lon="0.94502">
        <ele>460</ele>
        <time>2022-03-26T13:50:20+01:00</time>
      </trkpt>
      <trkpt lat="43.01732" lon="0.94476">
        <ele>461</ele>
        <time>2022-03-26T13:50:41+01:00</time>
      </trkpt>
      <trkpt lat="43.01734" lon="0.94451">
        <ele>459</ele>
        <time>2022-03-26T13:50:58+01:00</time>
      </trkpt>
      <trkpt lat="43.01753" lon="0.94453">
        <ele>460</ele>
        <time>2022-03-26T13:51:12+01:00</time>
      </trkpt>
      <trkpt lat="43.01771" lon="0.94445">
        <ele>461</ele>
        <time>2022-03-26T13:51:30+01:00</time>
      </trkpt>
      <trkpt lat="43.01789" lon="0.94447">
        <ele>453</ele>
        <time>2022-03-26T13:51:46+01:00</time>
      </trkpt>
      <trkpt lat="43.0181" lon="0.94449">
        <ele>455</ele>
        <time>2022-03-26T13:52:06+01:00</time>
      </trkpt>
      <trkpt lat="43.0183" lon="0.94445">
        <ele>455</ele>
        <time>2022-03-26T13:52:24+01:00</time>
      </trkpt>
      <trkpt lat="43.01844" lon="0.94429">
        <ele>454</ele>
        <time>2022-03-26T13:52:44+01:00</time>
      </trkpt>
      <trkpt lat="43.01839" lon="0.94404">
        <ele>247</ele>
        <time>2022-03-26T13:53:04+01:00</time>
      </trkpt>
      <trkpt lat="43.01826" lon="0.94384">
        <ele>247</ele>
        <time>2022-03-26T13:53:18+01:00</time>
      </trkpt>
      <trkpt lat="43.01816" lon="0.94361">
        <ele>458</ele>
        <time>2022-03-26T13:53:35+01:00</time>
      </trkpt>
      <trkpt lat="43.01802" lon="0.9434">
        <ele>455</ele>
        <time>2022-03-26T13:54:02+01:00</time>
      </trkpt>
      <trkpt lat="43.01794" lon="0.94316">
        <ele>459</ele>
        <time>2022-03-26T13:55:14+01:00</time>
      </trkpt>
      <trkpt lat="43.01776" lon="0.94302">
        <ele>460</ele>
        <time>2022-03-26T13:55:30+01:00</time>
      </trkpt>
      <trkpt lat="43.01764" lon="0.94283">
        <ele>459</ele>
        <time>2022-03-26T13:55:47+01:00</time>
      </trkpt>
      <trkpt lat="43.01761" lon="0.94258">
        <ele>453</ele>
        <time>2022-03-26T13:56:03+01:00</time>
      </trkpt>
      <trkpt lat="43.0178" lon="0.94249">
        <ele>452</ele>
        <time>2022-03-26T13:56:17+01:00</time>
      </trkpt>
      <trkpt lat="43.01797" lon="0.94237">
        <ele>453</ele>
        <time>2022-03-26T13:56:33+01:00</time>
      </trkpt>
      <trkpt lat="43.01814" lon="0.94222">
        <ele>450</ele>
        <time>2022-03-26T13:56:52+01:00</time>
      </trkpt>
      <trkpt lat="43.01826" lon="0.94202">
        <ele>448</ele>
        <time>2022-03-26T13:57:09+01:00</time>
      </trkpt>
      <trkpt lat="43.01839" lon="0.9418">
        <ele>453</ele>
        <time>2022-03-26T13:57:27+01:00</time>
      </trkpt>
      <trkpt lat="43.01853" lon="0.94162">
        <ele>454</ele>
        <time>2022-03-26T13:57:44+01:00</time>
      </trkpt>
      <trkpt lat="43.01872" lon="0.94152">
        <ele>453</ele>
        <time>2022-03-26T13:58:03+01:00</time>
      </trkpt>
      <trkpt lat="43.01891" lon="0.9414">
        <ele>447</ele>
        <time>2022-03-26T13:58:23+01:00</time>
      </trkpt>
      <trkpt lat="43.0191" lon="0.94131">
        <ele>446</ele>
        <time>2022-03-26T13:58:43+01:00</time>
      </trkpt>
      <trkpt lat="43.0193" lon="0.94124">
        <ele>447</ele>
        <time>2022-03-26T13:59:03+01:00</time>
      </trkpt>
      <trkpt lat="43.01946" lon="0.94114">
        <ele>446</ele>
        <time>2022-03-26T13:59:20+01:00</time>
      </trkpt>
      <trkpt lat="43.01963" lon="0.941">
        <ele>444</ele>
        <time>2022-03-26T13:59:40+01:00</time>
      </trkpt>
      <trkpt lat="43.01983" lon="0.94096">
        <ele>443</ele>
        <time>2022-03-26T14:00:03+01:00</time>
      </trkpt>
      <trkpt lat="43.02001" lon="0.94098">
        <ele>445</ele>
        <time>2022-03-26T14:00:27+01:00</time>
      </trkpt>
      <trkpt lat="43.02019" lon="0.94088">
        <ele>447</ele>
        <time>2022-03-26T14:00:42+01:00</time>
      </trkpt>
      <trkpt lat="43.02035" lon="0.94073">
        <ele>446</ele>
        <time>2022-03-26T14:01:03+01:00</time>
      </trkpt>
      <trkpt lat="43.02054" lon="0.94076">
        <ele>446</ele>
        <time>2022-03-26T14:01:26+01:00</time>
      </trkpt>
      <trkpt lat="43.02073" lon="0.94081">
        <ele>446</ele>
        <time>2022-03-26T14:02:01+01:00</time>
      </trkpt>
      <trkpt lat="43.02092" lon="0.94072">
        <ele>450</ele>
        <time>2022-03-26T14:02:16+01:00</time>
      </trkpt>
      <trkpt lat="43.02099" lon="0.94047">
        <ele>446</ele>
        <time>2022-03-26T14:02:33+01:00</time>
      </trkpt>
      <trkpt lat="43.02104" lon="0.94019">
        <ele>441</ele>
        <time>2022-03-26T14:03:17+01:00</time>
      </trkpt>
      <trkpt lat="43.02095" lon="0.93996">
        <ele>442</ele>
        <time>2022-03-26T14:03:38+01:00</time>
      </trkpt>
      <trkpt lat="43.02099" lon="0.93968">
        <ele>442</ele>
        <time>2022-03-26T14:04:13+01:00</time>
      </trkpt>
      <trkpt lat="43.02105" lon="0.93945">
        <ele>442</ele>
        <time>2022-03-26T14:04:28+01:00</time>
      </trkpt>
      <trkpt lat="43.02115" lon="0.93923">
        <ele>442</ele>
        <time>2022-03-26T14:04:43+01:00</time>
      </trkpt>
      <trkpt lat="43.02129" lon="0.93903">
        <ele>442</ele>
        <time>2022-03-26T14:05:01+01:00</time>
      </trkpt>
      <trkpt lat="43.02145" lon="0.93891">
        <ele>441</ele>
        <time>2022-03-26T14:05:23+01:00</time>
      </trkpt>
      <trkpt lat="43.0216" lon="0.93879">
        <ele>439</ele>
        <time>2022-03-26T14:05:38+01:00</time>
      </trkpt>
      <trkpt lat="43.02179" lon="0.93868">
        <ele>439</ele>
        <time>2022-03-26T14:05:49+01:00</time>
      </trkpt>
      <trkpt lat="43.02198" lon="0.93868">
        <ele>440</ele>
        <time>2022-03-26T14:06:03+01:00</time>
      </trkpt>
      <trkpt lat="43.02216" lon="0.93862">
        <ele>441</ele>
        <time>2022-03-26T14:06:25+01:00</time>
      </trkpt>
      <trkpt lat="43.0223" lon="0.93845">
        <ele>443</ele>
        <time>2022-03-26T14:07:34+01:00</time>
      </trkpt>
      <trkpt lat="43.02239" lon="0.93823">
        <ele>442</ele>
        <time>2022-03-26T14:08:55+01:00</time>
      </trkpt>
      <trkpt lat="43.02261" lon="0.93816">
        <ele>443</ele>
        <time>2022-03-26T14:09:26+01:00</time>
      </trkpt>
      <trkpt lat="43.0228" lon="0.93816">
        <ele>444</ele>
        <time>2022-03-26T14:09:37+01:00</time>
      </trkpt>
      <trkpt lat="43.023" lon="0.93812">
        <ele>444</ele>
        <time>2022-03-26T14:09:52+01:00</time>
      </trkpt>
      <trkpt lat="43.02318" lon="0.93806">
        <ele>444</ele>
        <time>2022-03-26T14:10:10+01:00</time>
      </trkpt>
      <trkpt lat="43.02336" lon="0.93797">
        <ele>444</ele>
        <time>2022-03-26T14:10:28+01:00</time>
      </trkpt>
      <trkpt lat="43.0232" lon="0.93816">
        <ele>441</ele>
        <time>2022-03-26T14:13:23+01:00</time>
      </trkpt>
      <trkpt lat="43.02303" lon="0.93828">
        <ele>440</ele>
        <time>2022-03-26T14:13:40+01:00</time>
      </trkpt>
      <trkpt lat="43.02283" lon="0.93833">
        <ele>442</ele>
        <time>2022-03-26T14:13:56+01:00</time>
      </trkpt>
      <trkpt lat="43.02264" lon="0.93836">
        <ele>442</ele>
        <time>2022-03-26T14:14:13+01:00</time>
      </trkpt>
      <trkpt lat="43.02244" lon="0.93841">
        <ele>443</ele>
        <time>2022-03-26T14:14:29+01:00</time>
      </trkpt>
      <trkpt lat="43.02226" lon="0.93847">
        <ele>443</ele>
        <time>2022-03-26T14:14:47+01:00</time>
      </trkpt>
      <trkpt lat="43.02228" lon="0.9382">
        <ele>444</ele>
        <time>2022-03-26T14:14:59+01:00</time>
      </trkpt>
      <trkpt lat="43.02248" lon="0.93814">
        <ele>443</ele>
        <time>2022-03-26T14:15:15+01:00</time>
      </trkpt>
      <trkpt lat="43.02268" lon="0.93813">
        <ele>445</ele>
        <time>2022-03-26T14:15:38+01:00</time>
      </trkpt>
      <trkpt lat="43.02286" lon="0.93807">
        <ele>444</ele>
        <time>2022-03-26T14:15:54+01:00</time>
      </trkpt>
      <trkpt lat="43.02305" lon="0.93805">
        <ele>445</ele>
        <time>2022-03-26T14:16:10+01:00</time>
      </trkpt>
      <trkpt lat="43.02324" lon="0.93797">
        <ele>445</ele>
        <time>2022-03-26T14:16:27+01:00</time>
      </trkpt>
      <trkpt lat="43.02341" lon="0.93783">
        <ele>444</ele>
        <time>2022-03-26T14:16:46+01:00</time>
      </trkpt>
      <trkpt lat="43.02356" lon="0.93766">
        <ele>444</ele>
        <time>2022-03-26T14:17:02+01:00</time>
      </trkpt>
      <trkpt lat="43.02375" lon="0.93756">
        <ele>446</ele>
        <time>2022-03-26T14:17:21+01:00</time>
      </trkpt>
      <trkpt lat="43.02393" lon="0.93744">
        <ele>446</ele>
        <time>2022-03-26T14:17:38+01:00</time>
      </trkpt>
      <trkpt lat="43.0241" lon="0.93728">
        <ele>444</ele>
        <time>2022-03-26T14:17:57+01:00</time>
      </trkpt>
      <trkpt lat="43.02422" lon="0.93708">
        <ele>443</ele>
        <time>2022-03-26T14:18:13+01:00</time>
      </trkpt>
      <trkpt lat="43.02441" lon="0.93701">
        <ele>443</ele>
        <time>2022-03-26T14:18:29+01:00</time>
      </trkpt>
      <trkpt lat="43.0246" lon="0.93697">
        <ele>443</ele>
        <time>2022-03-26T14:18:46+01:00</time>
      </trkpt>
      <trkpt lat="43.02479" lon="0.93688">
        <ele>444</ele>
        <time>2022-03-26T14:19:05+01:00</time>
      </trkpt>
      <trkpt lat="43.02498" lon="0.93676">
        <ele>443</ele>
        <time>2022-03-26T14:19:25+01:00</time>
      </trkpt>
      <trkpt lat="43.02512" lon="0.93659">
        <ele>443</ele>
        <time>2022-03-26T14:19:42+01:00</time>
      </trkpt>
      <trkpt lat="43.02528" lon="0.93645">
        <ele>443</ele>
        <time>2022-03-26T14:19:59+01:00</time>
      </trkpt>
      <trkpt lat="43.02547" lon="0.93646">
        <ele>445</ele>
        <time>2022-03-26T14:20:24+01:00</time>
      </trkpt>
      <trkpt lat="43.02565" lon="0.93634">
        <ele>447</ele>
        <time>2022-03-26T14:20:39+01:00</time>
      </trkpt>
      <trkpt lat="43.02584" lon="0.93621">
        <ele>445</ele>
        <time>2022-03-26T14:20:57+01:00</time>
      </trkpt>
      <trkpt lat="43.02593" lon="0.93599">
        <ele>444</ele>
        <time>2022-03-26T14:21:12+01:00</time>
      </trkpt>
      <trkpt lat="43.02599" lon="0.93575">
        <ele>441</ele>
        <time>2022-03-26T14:21:30+01:00</time>
      </trkpt>
      <trkpt lat="43.026" lon="0.93547">
        <ele>440</ele>
        <time>2022-03-26T14:21:47+01:00</time>
      </trkpt>
      <trkpt lat="43.02601" lon="0.9352">
        <ele>440</ele>
        <time>2022-03-26T14:22:06+01:00</time>
      </trkpt>
      <trkpt lat="43.02593" lon="0.93494">
        <ele>440</ele>
        <time>2022-03-26T14:23:17+01:00</time>
      </trkpt>
      <trkpt lat="43.02586" lon="0.93468">
        <ele>440</ele>
        <time>2022-03-26T14:23:33+01:00</time>
      </trkpt>
      <trkpt lat="43.02576" lon="0.93442">
        <ele>440</ele>
        <time>2022-03-26T14:23:50+01:00</time>
      </trkpt>
      <trkpt lat="43.02569" lon="0.93417">
        <ele>441</ele>
        <time>2022-03-26T14:24:00+01:00</time>
      </trkpt>
      <trkpt lat="43.02572" lon="0.93391">
        <ele>440</ele>
        <time>2022-03-26T14:24:16+01:00</time>
      </trkpt>
      <trkpt lat="43.02586" lon="0.93407">
        <ele>444</ele>
        <time>2022-03-26T14:24:58+01:00</time>
      </trkpt>
      <trkpt lat="43.02602" lon="0.93392">
        <ele>444</ele>
        <time>2022-03-26T14:25:25+01:00</time>
      </trkpt>
      <trkpt lat="43.0261" lon="0.93368">
        <ele>444</ele>
        <time>2022-03-26T14:25:37+01:00</time>
      </trkpt>
      <trkpt lat="43.0262" lon="0.93347">
        <ele>445</ele>
        <time>2022-03-26T14:25:50+01:00</time>
      </trkpt>
      <trkpt lat="43.02636" lon="0.93332">
        <ele>443</ele>
        <time>2022-03-26T14:26:07+01:00</time>
      </trkpt>
      <trkpt lat="43.02647" lon="0.9331">
        <ele>445</ele>
        <time>2022-03-26T14:26:24+01:00</time>
      </trkpt>
      <trkpt lat="43.02656" lon="0.93285">
        <ele>445</ele>
        <time>2022-03-26T14:26:44+01:00</time>
      </trkpt>
      <trkpt lat="43.0266" lon="0.93258">
        <ele>446</ele>
        <time>2022-03-26T14:27:04+01:00</time>
      </trkpt>
      <trkpt lat="43.02664" lon="0.93233">
        <ele>447</ele>
        <time>2022-03-26T14:27:22+01:00</time>
      </trkpt>
      <trkpt lat="43.0267" lon="0.93208">
        <ele>445</ele>
        <time>2022-03-26T14:27:43+01:00</time>
      </trkpt>
      <trkpt lat="43.02675" lon="0.93182">
        <ele>444</ele>
        <time>2022-03-26T14:28:03+01:00</time>
      </trkpt>
      <trkpt lat="43.02672" lon="0.93155">
        <ele>444</ele>
        <time>2022-03-26T14:30:16+01:00</time>
      </trkpt>
      <trkpt lat="43.02678" lon="0.9313">
        <ele>446</ele>
        <time>2022-03-26T14:30:31+01:00</time>
      </trkpt>
      <trkpt lat="43.0266" lon="0.92915">
        <ele>442</ele>
        <time>2022-03-26T14:35:28+01:00</time>
      </trkpt>
      <trkpt lat="43.02659" lon="0.92889">
        <ele>447</ele>
        <time>2022-03-26T14:38:14+01:00</time>
      </trkpt>
      <trkpt lat="43.02665" lon="0.92865">
        <ele>447</ele>
        <time>2022-03-26T14:38:26+01:00</time>
      </trkpt>
      <trkpt lat="43.02662" lon="0.92839">
        <ele>449</ele>
        <time>2022-03-26T14:38:37+01:00</time>
      </trkpt>
      <trkpt lat="43.02653" lon="0.92817">
        <ele>442</ele>
        <time>2022-03-26T14:38:52+01:00</time>
      </trkpt>
      <trkpt lat="43.02655" lon="0.92789">
        <ele>444</ele>
        <time>2022-03-26T14:39:16+01:00</time>
      </trkpt>
      <trkpt lat="43.02653" lon="0.92761">
        <ele>443</ele>
        <time>2022-03-26T14:39:32+01:00</time>
      </trkpt>
      <trkpt lat="43.02653" lon="0.92735">
        <ele>442</ele>
        <time>2022-03-26T14:39:46+01:00</time>
      </trkpt>
      <trkpt lat="43.02654" lon="0.9271">
        <ele>444</ele>
        <time>2022-03-26T14:40:00+01:00</time>
      </trkpt>
      <trkpt lat="43.02651" lon="0.92685">
        <ele>444</ele>
        <time>2022-03-26T14:40:12+01:00</time>
      </trkpt>
      <trkpt lat="43.02669" lon="0.92679">
        <ele>443</ele>
        <time>2022-03-26T14:41:08+01:00</time>
      </trkpt>
      <trkpt lat="43.02687" lon="0.92678">
        <ele>442</ele>
        <time>2022-03-26T14:41:23+01:00</time>
      </trkpt>
      <trkpt lat="43.02706" lon="0.92685">
        <ele>442</ele>
        <time>2022-03-26T14:41:42+01:00</time>
      </trkpt>
      <trkpt lat="43.02722" lon="0.92703">
        <ele>441</ele>
        <time>2022-03-26T14:42:05+01:00</time>
      </trkpt>
      <trkpt lat="43.02739" lon="0.92713">
        <ele>440</ele>
        <time>2022-03-26T14:42:22+01:00</time>
      </trkpt>
      <trkpt lat="43.02759" lon="0.92707">
        <ele>438</ele>
        <time>2022-03-26T14:42:46+01:00</time>
      </trkpt>
      <trkpt lat="43.02777" lon="0.92707">
        <ele>439</ele>
        <time>2022-03-26T14:43:11+01:00</time>
      </trkpt>
      <trkpt lat="43.02795" lon="0.92714">
        <ele>440</ele>
        <time>2022-03-26T14:43:25+01:00</time>
      </trkpt>
      <trkpt lat="43.02812" lon="0.92722">
        <ele>439</ele>
        <time>2022-03-26T14:43:42+01:00</time>
      </trkpt>
      <trkpt lat="43.02831" lon="0.92725">
        <ele>437</ele>
        <time>2022-03-26T14:44:01+01:00</time>
      </trkpt>
      <trkpt lat="43.02851" lon="0.92725">
        <ele>438</ele>
        <time>2022-03-26T14:44:23+01:00</time>
      </trkpt>
      <trkpt lat="43.0287" lon="0.92729">
        <ele>440</ele>
        <time>2022-03-26T14:44:42+01:00</time>
      </trkpt>
      <trkpt lat="43.02889" lon="0.92724">
        <ele>439</ele>
        <time>2022-03-26T14:45:00+01:00</time>
      </trkpt>
      <trkpt lat="43.02909" lon="0.92724">
        <ele>439</ele>
        <time>2022-03-26T14:45:18+01:00</time>
      </trkpt>
      <trkpt lat="43.02929" lon="0.92728">
        <ele>439</ele>
        <time>2022-03-26T14:45:35+01:00</time>
      </trkpt>
      <trkpt lat="43.02944" lon="0.92745">
        <ele>438</ele>
        <time>2022-03-26T14:46:01+01:00</time>
      </trkpt>
      <trkpt lat="43.02959" lon="0.92765">
        <ele>437</ele>
        <time>2022-03-26T14:46:20+01:00</time>
      </trkpt>
      <trkpt lat="43.02968" lon="0.92789">
        <ele>438</ele>
        <time>2022-03-26T14:46:40+01:00</time>
      </trkpt>
      <trkpt lat="43.02978" lon="0.92811">
        <ele>439</ele>
        <time>2022-03-26T14:46:58+01:00</time>
      </trkpt>
      <trkpt lat="43.02998" lon="0.92816">
        <ele>437</ele>
        <time>2022-03-26T14:47:25+01:00</time>
      </trkpt>
      <trkpt lat="43.03016" lon="0.92814">
        <ele>439</ele>
        <time>2022-03-26T14:47:39+01:00</time>
      </trkpt>
      <trkpt lat="43.03034" lon="0.92803">
        <ele>449</ele>
        <time>2022-03-26T14:48:01+01:00</time>
      </trkpt>
      <trkpt lat="43.03054" lon="0.92802">
        <ele>449</ele>
        <time>2022-03-26T14:48:30+01:00</time>
      </trkpt>
      <trkpt lat="43.03072" lon="0.92816">
        <ele>432</ele>
        <time>2022-03-26T14:48:52+01:00</time>
      </trkpt>
      <trkpt lat="43.03087" lon="0.92831">
        <ele>436</ele>
        <time>2022-03-26T14:49:12+01:00</time>
      </trkpt>
      <trkpt lat="43.03105" lon="0.92843">
        <ele>449</ele>
        <time>2022-03-26T14:49:30+01:00</time>
      </trkpt>
      <trkpt lat="43.03121" lon="0.92857">
        <ele>429</ele>
        <time>2022-03-26T14:49:45+01:00</time>
      </trkpt>
      <trkpt lat="43.03142" lon="0.92859">
        <ele>434</ele>
        <time>2022-03-26T14:50:01+01:00</time>
      </trkpt>
      <trkpt lat="43.0316" lon="0.92864">
        <ele>435</ele>
        <time>2022-03-26T14:50:17+01:00</time>
      </trkpt>
      <trkpt lat="43.03179" lon="0.92875">
        <ele>436</ele>
        <time>2022-03-26T14:50:34+01:00</time>
      </trkpt>
      <trkpt lat="43.03197" lon="0.92884">
        <ele>432</ele>
        <time>2022-03-26T14:50:54+01:00</time>
      </trkpt>
      <trkpt lat="43.03216" lon="0.92891">
        <ele>435</ele>
        <time>2022-03-26T14:51:13+01:00</time>
      </trkpt>
      <trkpt lat="43.03234" lon="0.92901">
        <ele>409</ele>
        <time>2022-03-26T14:51:32+01:00</time>
      </trkpt>
      <trkpt lat="43.03252" lon="0.92906">
        <ele>435</ele>
        <time>2022-03-26T14:52:12+01:00</time>
      </trkpt>
      <trkpt lat="43.0327" lon="0.92914">
        <ele>436</ele>
        <time>2022-03-26T14:52:26+01:00</time>
      </trkpt>
      <trkpt lat="43.03288" lon="0.92926">
        <ele>434</ele>
        <time>2022-03-26T14:52:40+01:00</time>
      </trkpt>
      <trkpt lat="43.03305" lon="0.92937">
        <ele>437</ele>
        <time>2022-03-26T14:52:54+01:00</time>
      </trkpt>
      <trkpt lat="43.03325" lon="0.92936">
        <ele>427</ele>
        <time>2022-03-26T14:53:11+01:00</time>
      </trkpt>
      <trkpt lat="43.03343" lon="0.92948">
        <ele>432</ele>
        <time>2022-03-26T14:53:31+01:00</time>
      </trkpt>
      <trkpt lat="43.03357" lon="0.92965">
        <ele>437</ele>
        <time>2022-03-26T14:53:58+01:00</time>
      </trkpt>
      <trkpt lat="43.03372" lon="0.92981">
        <ele>430</ele>
        <time>2022-03-26T14:54:10+01:00</time>
      </trkpt>
      <trkpt lat="43.0339" lon="0.92993">
        <ele>429</ele>
        <time>2022-03-26T14:54:27+01:00</time>
      </trkpt>
      <trkpt lat="43.03405" lon="0.93006">
        <ele>432</ele>
        <time>2022-03-26T14:54:43+01:00</time>
      </trkpt>
      <trkpt lat="43.03422" lon="0.9302">
        <ele>413</ele>
        <time>2022-03-26T14:55:03+01:00</time>
      </trkpt>
      <trkpt lat="43.03434" lon="0.93043">
        <ele>436</ele>
        <time>2022-03-26T14:55:31+01:00</time>
      </trkpt>
      <trkpt lat="43.03437" lon="0.93068">
        <ele>436</ele>
        <time>2022-03-26T14:55:43+01:00</time>
      </trkpt>
      <trkpt lat="43.03441" lon="0.93092">
        <ele>437</ele>
        <time>2022-03-26T14:55:59+01:00</time>
      </trkpt>
      <trkpt lat="43.03452" lon="0.93113">
        <ele>436</ele>
        <time>2022-03-26T14:56:21+01:00</time>
      </trkpt>
      <trkpt lat="43.03466" lon="0.93131">
        <ele>435</ele>
        <time>2022-03-26T14:56:38+01:00</time>
      </trkpt>
      <trkpt lat="43.03483" lon="0.93143">
        <ele>434</ele>
        <time>2022-03-26T14:56:57+01:00</time>
      </trkpt>
      <trkpt lat="43.035" lon="0.93156">
        <ele>437</ele>
        <time>2022-03-26T14:57:17+01:00</time>
      </trkpt>
      <trkpt lat="43.03515" lon="0.93171">
        <ele>436</ele>
        <time>2022-03-26T14:57:36+01:00</time>
      </trkpt>
      <trkpt lat="43.03527" lon="0.93191">
        <ele>436</ele>
        <time>2022-03-26T14:57:54+01:00</time>
      </trkpt>
      <trkpt lat="43.03543" lon="0.93205">
        <ele>436</ele>
        <time>2022-03-26T14:58:18+01:00</time>
      </trkpt>
      <trkpt lat="43.03562" lon="0.9321">
        <ele>437</ele>
        <time>2022-03-26T14:58:38+01:00</time>
      </trkpt>
      <trkpt lat="43.0358" lon="0.93222">
        <ele>478</ele>
        <time>2022-03-26T14:58:57+01:00</time>
      </trkpt>
      <trkpt lat="43.036" lon="0.93227">
        <ele>470</ele>
        <time>2022-03-26T14:59:20+01:00</time>
      </trkpt>
      <trkpt lat="43.03618" lon="0.93226">
        <ele>481</ele>
        <time>2022-03-26T14:59:38+01:00</time>
      </trkpt>
      <trkpt lat="43.03636" lon="0.93217">
        <ele>476</ele>
        <time>2022-03-26T14:59:54+01:00</time>
      </trkpt>
      <trkpt lat="43.03655" lon="0.93214">
        <ele>470</ele>
        <time>2022-03-26T15:00:12+01:00</time>
      </trkpt>
      <trkpt lat="43.03673" lon="0.9322">
        <ele>467</ele>
        <time>2022-03-26T15:00:27+01:00</time>
      </trkpt>
      <trkpt lat="43.03691" lon="0.93227">
        <ele>474</ele>
        <time>2022-03-26T15:00:43+01:00</time>
      </trkpt>
      <trkpt lat="43.03704" lon="0.93228">
        <ele>481</ele>
        <time>2022-03-26T15:01:03+01:00</time>
      </trkpt>
      <trkpt lat="43.03721" lon="0.93213">
        <ele>487</ele>
        <time>2022-03-26T15:01:12+01:00</time>
      </trkpt>
      <trkpt lat="43.03739" lon="0.93209">
        <ele>469</ele>
        <time>2022-03-26T15:01:24+01:00</time>
      </trkpt>
      <trkpt lat="43.03757" lon="0.93196">
        <ele>458</ele>
        <time>2022-03-26T15:01:41+01:00</time>
      </trkpt>
      <trkpt lat="43.03777" lon="0.93193">
        <ele>469</ele>
        <time>2022-03-26T15:01:57+01:00</time>
      </trkpt>
      <trkpt lat="43.03794" lon="0.93204">
        <ele>469</ele>
        <time>2022-03-26T15:02:07+01:00</time>
      </trkpt>
      <trkpt lat="43.03813" lon="0.93204">
        <ele>471</ele>
        <time>2022-03-26T15:02:21+01:00</time>
      </trkpt>
      <trkpt lat="43.0383" lon="0.93197">
        <ele>457</ele>
        <time>2022-03-26T15:02:35+01:00</time>
      </trkpt>
      <trkpt lat="43.03848" lon="0.93193">
        <ele>441</ele>
        <time>2022-03-26T15:02:48+01:00</time>
      </trkpt>
      <trkpt lat="43.03869" lon="0.93189">
        <ele>453</ele>
        <time>2022-03-26T15:03:08+01:00</time>
      </trkpt>
      <trkpt lat="43.03889" lon="0.93189">
        <ele>454</ele>
        <time>2022-03-26T15:03:26+01:00</time>
      </trkpt>
      <trkpt lat="43.03908" lon="0.93189">
        <ele>456</ele>
        <time>2022-03-26T15:03:42+01:00</time>
      </trkpt>
      <trkpt lat="43.03923" lon="0.93172">
        <ele>458</ele>
        <time>2022-03-26T15:03:57+01:00</time>
      </trkpt>
      <trkpt lat="43.03942" lon="0.93179">
        <ele>462</ele>
        <time>2022-03-26T15:04:23+01:00</time>
      </trkpt>
      <trkpt lat="43.03956" lon="0.93196">
        <ele>443</ele>
        <time>2022-03-26T15:04:36+01:00</time>
      </trkpt>
      <trkpt lat="43.03968" lon="0.93214">
        <ele>484</ele>
        <time>2022-03-26T15:04:53+01:00</time>
      </trkpt>
      <trkpt lat="43.03976" lon="0.93237">
        <ele>471</ele>
        <time>2022-03-26T15:05:33+01:00</time>
      </trkpt>
      <trkpt lat="43.0399" lon="0.93257">
        <ele>394</ele>
        <time>2022-03-26T15:08:38+01:00</time>
      </trkpt>
      <trkpt lat="43.03992" lon="0.93282">
        <ele>391</ele>
        <time>2022-03-26T15:10:26+01:00</time>
      </trkpt>
      <trkpt lat="43.0401" lon="0.93282">
        <ele>394</ele>
        <time>2022-03-26T15:10:47+01:00</time>
      </trkpt>
      <trkpt lat="43.04029" lon="0.93292">
        <ele>393</ele>
        <time>2022-03-26T15:11:11+01:00</time>
      </trkpt>
      <trkpt lat="43.04046" lon="0.93282">
        <ele>392</ele>
        <time>2022-03-26T15:11:30+01:00</time>
      </trkpt>
      <trkpt lat="43.04059" lon="0.93262">
        <ele>394</ele>
        <time>2022-03-26T15:11:48+01:00</time>
      </trkpt>
      <trkpt lat="43.04077" lon="0.93254">
        <ele>397</ele>
        <time>2022-03-26T15:12:09+01:00</time>
      </trkpt>
      <trkpt lat="43.04116" lon="0.93267">
        <ele>393</ele>
        <time>2022-03-26T15:12:45+01:00</time>
      </trkpt>
      <trkpt lat="43.04126" lon="0.93288">
        <ele>392</ele>
        <time>2022-03-26T15:13:07+01:00</time>
      </trkpt>
      <trkpt lat="43.04144" lon="0.93322">
        <ele>393</ele>
        <time>2022-03-26T15:13:30+01:00</time>
      </trkpt>
      <trkpt lat="43.04168" lon="0.93324">
        <ele>393</ele>
        <time>2022-03-26T15:13:40+01:00</time>
      </trkpt>
      <trkpt lat="43.04187" lon="0.9331">
        <ele>395</ele>
        <time>2022-03-26T15:14:02+01:00</time>
      </trkpt>
      <trkpt lat="43.04206" lon="0.93308">
        <ele>396</ele>
        <time>2022-03-26T15:14:23+01:00</time>
      </trkpt>
      <trkpt lat="43.04223" lon="0.93293">
        <ele>395</ele>
        <time>2022-03-26T15:14:50+01:00</time>
      </trkpt>
      <trkpt lat="43.04219" lon="0.93267">
        <ele>394</ele>
        <time>2022-03-26T15:15:04+01:00</time>
      </trkpt>
      <trkpt lat="43.04224" lon="0.9324">
        <ele>392</ele>
        <time>2022-03-26T15:15:36+01:00</time>
      </trkpt>
      <trkpt lat="43.04244" lon="0.93235">
        <ele>392</ele>
        <time>2022-03-26T15:15:52+01:00</time>
      </trkpt>
      <trkpt lat="43.04263" lon="0.93245">
        <ele>393</ele>
        <time>2022-03-26T15:16:13+01:00</time>
      </trkpt>
      <trkpt lat="43.04282" lon="0.93242">
        <ele>395</ele>
        <time>2022-03-26T15:16:32+01:00</time>
      </trkpt>
      <trkpt lat="43.043" lon="0.93246">
        <ele>395</ele>
        <time>2022-03-26T15:16:50+01:00</time>
      </trkpt>
      <trkpt lat="43.04317" lon="0.93257">
        <ele>438</ele>
        <time>2022-03-26T15:17:08+01:00</time>
      </trkpt>
      <trkpt lat="43.04337" lon="0.93262">
        <ele>436</ele>
        <time>2022-03-26T15:17:26+01:00</time>
      </trkpt>
      <trkpt lat="43.04355" lon="0.93271">
        <ele>438</ele>
        <time>2022-03-26T15:17:44+01:00</time>
      </trkpt>
      <trkpt lat="43.04375" lon="0.93265">
        <ele>434</ele>
        <time>2022-03-26T15:18:03+01:00</time>
      </trkpt>
      <trkpt lat="43.04394" lon="0.9326">
        <ele>435</ele>
        <time>2022-03-26T15:18:20+01:00</time>
      </trkpt>
      <trkpt lat="43.04414" lon="0.9326">
        <ele>435</ele>
        <time>2022-03-26T15:18:32+01:00</time>
      </trkpt>
      <trkpt lat="43.04433" lon="0.93263">
        <ele>438</ele>
        <time>2022-03-26T15:18:49+01:00</time>
      </trkpt>
      <trkpt lat="43.04452" lon="0.93271">
        <ele>437</ele>
        <time>2022-03-26T15:19:09+01:00</time>
      </trkpt>
      <trkpt lat="43.04471" lon="0.93269">
        <ele>430</ele>
        <time>2022-03-26T15:19:28+01:00</time>
      </trkpt>
      <trkpt lat="43.0449" lon="0.93262">
        <ele>433</ele>
        <time>2022-03-26T15:19:47+01:00</time>
      </trkpt>
      <trkpt lat="43.0451" lon="0.93263">
        <ele>425</ele>
        <time>2022-03-26T15:20:04+01:00</time>
      </trkpt>
      <trkpt lat="43.04529" lon="0.93265">
        <ele>426</ele>
        <time>2022-03-26T15:20:21+01:00</time>
      </trkpt>
      <trkpt lat="43.04548" lon="0.93265">
        <ele>425</ele>
        <time>2022-03-26T15:20:39+01:00</time>
      </trkpt>
      <trkpt lat="43.04568" lon="0.9327">
        <ele>389</ele>
        <time>2022-03-26T15:21:08+01:00</time>
      </trkpt>
      <trkpt lat="43.04585" lon="0.93279">
        <ele>389</ele>
        <time>2022-03-26T15:21:28+01:00</time>
      </trkpt>
      <trkpt lat="43.04604" lon="0.93285">
        <ele>396</ele>
        <time>2022-03-26T15:21:44+01:00</time>
      </trkpt>
      <trkpt lat="43.04623" lon="0.93288">
        <ele>396</ele>
        <time>2022-03-26T15:22:01+01:00</time>
      </trkpt>
      <trkpt lat="43.04641" lon="0.93287">
        <ele>394</ele>
        <time>2022-03-26T15:22:20+01:00</time>
      </trkpt>
      <trkpt lat="43.0466" lon="0.93295">
        <ele>395</ele>
        <time>2022-03-26T15:22:41+01:00</time>
      </trkpt>
      <trkpt lat="43.04677" lon="0.93307">
        <ele>395</ele>
        <time>2022-03-26T15:23:07+01:00</time>
      </trkpt>
      <trkpt lat="43.04676" lon="0.93334">
        <ele>395</ele>
        <time>2022-03-26T15:23:26+01:00</time>
      </trkpt>
      <trkpt lat="43.04677" lon="0.93359">
        <ele>395</ele>
        <time>2022-03-26T15:23:44+01:00</time>
      </trkpt>
      <trkpt lat="43.04689" lon="0.93379">
        <ele>395</ele>
        <time>2022-03-26T15:24:04+01:00</time>
      </trkpt>
      <trkpt lat="43.04697" lon="0.93402">
        <ele>395</ele>
        <time>2022-03-26T15:24:25+01:00</time>
      </trkpt>
      <trkpt lat="43.04707" lon="0.93423">
        <ele>395</ele>
        <time>2022-03-26T15:24:43+01:00</time>
      </trkpt>
      <trkpt lat="43.04734" lon="0.93433">
        <ele>392</ele>
        <time>2022-03-26T15:25:39+01:00</time>
      </trkpt>
      <trkpt lat="43.04715" lon="0.93439">
        <ele>386</ele>
        <time>2022-03-26T15:27:11+01:00</time>
      </trkpt>
      <trkpt lat="43.04708" lon="0.93465">
        <ele>386</ele>
        <time>2022-03-26T15:27:30+01:00</time>
      </trkpt>
      <trkpt lat="43.047" lon="0.93488">
        <ele>384</ele>
        <time>2022-03-26T15:27:51+01:00</time>
      </trkpt>
      <trkpt lat="43.04694" lon="0.93514">
        <ele>384</ele>
        <time>2022-03-26T15:28:09+01:00</time>
      </trkpt>
      <trkpt lat="43.04688" lon="0.9354">
        <ele>385</ele>
        <time>2022-03-26T15:28:27+01:00</time>
      </trkpt>
      <trkpt lat="43.04682" lon="0.93566">
        <ele>387</ele>
        <time>2022-03-26T15:28:46+01:00</time>
      </trkpt>
      <trkpt lat="43.04684" lon="0.93593">
        <ele>387</ele>
        <time>2022-03-26T15:29:03+01:00</time>
      </trkpt>
      <trkpt lat="43.04692" lon="0.93618">
        <ele>393</ele>
        <time>2022-03-26T15:29:23+01:00</time>
      </trkpt>
      <trkpt lat="43.04697" lon="0.93643">
        <ele>391</ele>
        <time>2022-03-26T15:29:47+01:00</time>
      </trkpt>
      <trkpt lat="43.04701" lon="0.9367">
        <ele>393</ele>
        <time>2022-03-26T15:30:07+01:00</time>
      </trkpt>
      <trkpt lat="43.04703" lon="0.93697">
        <ele>394</ele>
        <time>2022-03-26T15:30:27+01:00</time>
      </trkpt>
      <trkpt lat="43.04706" lon="0.93724">
        <ele>395</ele>
        <time>2022-03-26T15:30:44+01:00</time>
      </trkpt>
      <trkpt lat="43.04707" lon="0.93751">
        <ele>395</ele>
        <time>2022-03-26T15:31:01+01:00</time>
      </trkpt>
      <trkpt lat="43.04707" lon="0.93779">
        <ele>394</ele>
        <time>2022-03-26T15:31:27+01:00</time>
      </trkpt>
      <trkpt lat="43.04694" lon="0.93798">
        <ele>421</ele>
        <time>2022-03-26T15:32:05+01:00</time>
      </trkpt>
      <trkpt lat="43.0469" lon="0.93824">
        <ele>413</ele>
        <time>2022-03-26T15:32:24+01:00</time>
      </trkpt>
      <trkpt lat="43.04695" lon="0.9385">
        <ele>418</ele>
        <time>2022-03-26T15:32:47+01:00</time>
      </trkpt>
      <trkpt lat="43.04688" lon="0.93877">
        <ele>418</ele>
        <time>2022-03-26T15:33:10+01:00</time>
      </trkpt>
      <trkpt lat="43.04689" lon="0.93903">
        <ele>424</ele>
        <time>2022-03-26T15:33:25+01:00</time>
      </trkpt>
      <trkpt lat="43.04678" lon="0.93924">
        <ele>422</ele>
        <time>2022-03-26T15:33:50+01:00</time>
      </trkpt>
      <trkpt lat="43.04681" lon="0.93952">
        <ele>427</ele>
        <time>2022-03-26T15:34:11+01:00</time>
      </trkpt>
      <trkpt lat="43.04673" lon="0.93977">
        <ele>432</ele>
        <time>2022-03-26T15:34:25+01:00</time>
      </trkpt>
      <trkpt lat="43.04666" lon="0.94003">
        <ele>429</ele>
        <time>2022-03-26T15:34:44+01:00</time>
      </trkpt>
      <trkpt lat="43.0466" lon="0.94028">
        <ele>427</ele>
        <time>2022-03-26T15:35:09+01:00</time>
      </trkpt>
      <trkpt lat="43.04661" lon="0.94053">
        <ele>419</ele>
        <time>2022-03-26T15:35:29+01:00</time>
      </trkpt>
      <trkpt lat="43.04655" lon="0.94078">
        <ele>422</ele>
        <time>2022-03-26T15:35:48+01:00</time>
      </trkpt>
      <trkpt lat="43.04644" lon="0.94099">
        <ele>413</ele>
        <time>2022-03-26T15:36:08+01:00</time>
      </trkpt>
      <trkpt lat="43.0463" lon="0.94115">
        <ele>418</ele>
        <time>2022-03-26T15:36:30+01:00</time>
      </trkpt>
      <trkpt lat="43.04624" lon="0.94091">
        <ele>415</ele>
        <time>2022-03-26T15:36:48+01:00</time>
      </trkpt>
      <trkpt lat="43.04607" lon="0.9408">
        <ele>417</ele>
        <time>2022-03-26T15:37:15+01:00</time>
      </trkpt>
      <trkpt lat="43.04598" lon="0.94142">
        <ele>420</ele>
        <time>2022-03-26T15:37:20+01:00</time>
      </trkpt>
      <trkpt lat="43.04596" lon="0.94167">
        <ele>421</ele>
        <time>2022-03-26T15:37:28+01:00</time>
      </trkpt>
      <trkpt lat="43.04588" lon="0.9419">
        <ele>427</ele>
        <time>2022-03-26T15:37:42+01:00</time>
      </trkpt>
      <trkpt lat="43.04575" lon="0.94209">
        <ele>423</ele>
        <time>2022-03-26T15:37:55+01:00</time>
      </trkpt>
      <trkpt lat="43.0456" lon="0.94227">
        <ele>422</ele>
        <time>2022-03-26T15:38:11+01:00</time>
      </trkpt>
      <trkpt lat="43.04557" lon="0.94253">
        <ele>421</ele>
        <time>2022-03-26T15:38:27+01:00</time>
      </trkpt>
      <trkpt lat="43.04537" lon="0.94257">
        <ele>423</ele>
        <time>2022-03-26T15:38:45+01:00</time>
      </trkpt>
      <trkpt lat="43.04529" lon="0.94233">
        <ele>421</ele>
        <time>2022-03-26T15:39:08+01:00</time>
      </trkpt>
      <trkpt lat="43.0451" lon="0.94219">
        <ele>422</ele>
        <time>2022-03-26T15:39:23+01:00</time>
      </trkpt>
      <trkpt lat="43.04492" lon="0.94214">
        <ele>423</ele>
        <time>2022-03-26T15:39:40+01:00</time>
      </trkpt>
      <trkpt lat="43.04474" lon="0.94222">
        <ele>424</ele>
        <time>2022-03-26T15:40:00+01:00</time>
      </trkpt>
      <trkpt lat="43.04474" lon="0.94247">
        <ele>426</ele>
        <time>2022-03-26T15:40:18+01:00</time>
      </trkpt>
      <trkpt lat="43.04471" lon="0.94272">
        <ele>424</ele>
        <time>2022-03-26T15:40:39+01:00</time>
      </trkpt>
      <trkpt lat="43.04463" lon="0.94294">
        <ele>424</ele>
        <time>2022-03-26T15:40:56+01:00</time>
      </trkpt>
      <trkpt lat="43.04445" lon="0.94307">
        <ele>426</ele>
        <time>2022-03-26T15:41:19+01:00</time>
      </trkpt>
      <trkpt lat="43.04431" lon="0.94324">
        <ele>430</ele>
        <time>2022-03-26T15:41:39+01:00</time>
      </trkpt>
      <trkpt lat="43.04418" lon="0.94343">
        <ele>426</ele>
        <time>2022-03-26T15:42:02+01:00</time>
      </trkpt>
      <trkpt lat="43.04413" lon="0.94368">
        <ele>428</ele>
        <time>2022-03-26T15:42:25+01:00</time>
      </trkpt>
      <trkpt lat="43.04405" lon="0.94391">
        <ele>431</ele>
        <time>2022-03-26T15:42:50+01:00</time>
      </trkpt>
      <trkpt lat="43.04392" lon="0.9441">
        <ele>427</ele>
        <time>2022-03-26T15:43:11+01:00</time>
      </trkpt>
      <trkpt lat="43.04372" lon="0.94417">
        <ele>433</ele>
        <time>2022-03-26T15:43:32+01:00</time>
      </trkpt>
      <trkpt lat="43.04355" lon="0.94432">
        <ele>439</ele>
        <time>2022-03-26T15:43:54+01:00</time>
      </trkpt>
      <trkpt lat="43.04335" lon="0.94442">
        <ele>439</ele>
        <time>2022-03-26T15:44:11+01:00</time>
      </trkpt>
      <trkpt lat="43.04314" lon="0.94441">
        <ele>440</ele>
        <time>2022-03-26T15:44:24+01:00</time>
      </trkpt>
      <trkpt lat="43.04298" lon="0.94429">
        <ele>438</ele>
        <time>2022-03-26T15:44:38+01:00</time>
      </trkpt>
      <trkpt lat="43.0428" lon="0.94421">
        <ele>438</ele>
        <time>2022-03-26T15:44:59+01:00</time>
      </trkpt>
      <trkpt lat="43.04263" lon="0.94405">
        <ele>441</ele>
        <time>2022-03-26T15:45:23+01:00</time>
      </trkpt>
      <trkpt lat="43.04253" lon="0.94384">
        <ele>451</ele>
        <time>2022-03-26T15:45:53+01:00</time>
      </trkpt>
      <trkpt lat="43.04234" lon="0.94374">
        <ele>446</ele>
        <time>2022-03-26T15:51:13+01:00</time>
      </trkpt>
      <trkpt lat="43.04216" lon="0.94372">
        <ele>446</ele>
        <time>2022-03-26T15:51:26+01:00</time>
      </trkpt>
      <trkpt lat="43.04199" lon="0.94378">
        <ele>446</ele>
        <time>2022-03-26T15:51:37+01:00</time>
      </trkpt>
      <trkpt lat="43.0418" lon="0.94387">
        <ele>447</ele>
        <time>2022-03-26T15:51:52+01:00</time>
      </trkpt>
      <trkpt lat="43.04171" lon="0.94411">
        <ele>477</ele>
        <time>2022-03-26T15:52:09+01:00</time>
      </trkpt>
      <trkpt lat="43.04166" lon="0.94436">
        <ele>477</ele>
        <time>2022-03-26T15:52:24+01:00</time>
      </trkpt>
      <trkpt lat="43.04169" lon="0.94462">
        <ele>479</ele>
        <time>2022-03-26T15:52:40+01:00</time>
      </trkpt>
      <trkpt lat="43.04177" lon="0.94486">
        <ele>480</ele>
        <time>2022-03-26T15:52:58+01:00</time>
      </trkpt>
      <trkpt lat="43.04178" lon="0.94513">
        <ele>479</ele>
        <time>2022-03-26T15:53:17+01:00</time>
      </trkpt>
      <trkpt lat="43.04167" lon="0.94533">
        <ele>476</ele>
        <time>2022-03-26T15:53:34+01:00</time>
      </trkpt>
      <trkpt lat="43.04153" lon="0.94551">
        <ele>446</ele>
        <time>2022-03-26T15:53:52+01:00</time>
      </trkpt>
      <trkpt lat="43.04144" lon="0.94574">
        <ele>462</ele>
        <time>2022-03-26T15:54:10+01:00</time>
      </trkpt>
      <trkpt lat="43.04134" lon="0.94597">
        <ele>472</ele>
        <time>2022-03-26T15:54:29+01:00</time>
      </trkpt>
      <trkpt lat="43.04128" lon="0.94621">
        <ele>446</ele>
        <time>2022-03-26T15:54:51+01:00</time>
      </trkpt>
      <trkpt lat="43.04132" lon="0.94646">
        <ele>442</ele>
        <time>2022-03-26T15:55:12+01:00</time>
      </trkpt>
      <trkpt lat="43.04129" lon="0.94671">
        <ele>441</ele>
        <time>2022-03-26T15:55:33+01:00</time>
      </trkpt>
      <trkpt lat="43.04115" lon="0.94691">
        <ele>441</ele>
        <time>2022-03-26T15:55:53+01:00</time>
      </trkpt>
      <trkpt lat="43.04101" lon="0.94711">
        <ele>448</ele>
        <time>2022-03-26T15:56:10+01:00</time>
      </trkpt>
      <trkpt lat="43.04085" lon="0.94727">
        <ele>448</ele>
        <time>2022-03-26T15:56:26+01:00</time>
      </trkpt>
      <trkpt lat="43.04068" lon="0.94738">
        <ele>453</ele>
        <time>2022-03-26T15:56:43+01:00</time>
      </trkpt>
      <trkpt lat="43.04055" lon="0.94758">
        <ele>452</ele>
        <time>2022-03-26T15:57:02+01:00</time>
      </trkpt>
      <trkpt lat="43.04045" lon="0.94779">
        <ele>449</ele>
        <time>2022-03-26T15:57:23+01:00</time>
      </trkpt>
      <trkpt lat="43.04033" lon="0.94801">
        <ele>443</ele>
        <time>2022-03-26T15:57:52+01:00</time>
      </trkpt>
      <trkpt lat="43.04011" lon="0.94809">
        <ele>446</ele>
        <time>2022-03-26T15:59:23+01:00</time>
      </trkpt>
      <trkpt lat="43.04026" lon="0.94828">
        <ele>444</ele>
        <time>2022-03-26T15:59:39+01:00</time>
      </trkpt>
      <trkpt lat="43.04039" lon="0.94846">
        <ele>446</ele>
        <time>2022-03-26T15:59:53+01:00</time>
      </trkpt>
      <trkpt lat="43.04055" lon="0.94863">
        <ele>446</ele>
        <time>2022-03-26T16:00:09+01:00</time>
      </trkpt>
      <trkpt lat="43.04052" lon="0.94889">
        <ele>459</ele>
        <time>2022-03-26T16:01:08+01:00</time>
      </trkpt>
      <trkpt lat="43.04052" lon="0.94914">
        <ele>460</ele>
        <time>2022-03-26T16:01:27+01:00</time>
      </trkpt>
      <trkpt lat="43.0406" lon="0.94938">
        <ele>462</ele>
        <time>2022-03-26T16:01:47+01:00</time>
      </trkpt>
      <trkpt lat="43.04055" lon="0.94963">
        <ele>460</ele>
        <time>2022-03-26T16:02:06+01:00</time>
      </trkpt>
      <trkpt lat="43.04047" lon="0.94989">
        <ele>461</ele>
        <time>2022-03-26T16:02:27+01:00</time>
      </trkpt>
      <trkpt lat="43.04041" lon="0.95014">
        <ele>460</ele>
        <time>2022-03-26T16:02:45+01:00</time>
      </trkpt>
      <trkpt lat="43.04037" lon="0.95038">
        <ele>460</ele>
        <time>2022-03-26T16:03:00+01:00</time>
      </trkpt>
      <trkpt lat="43.04021" lon="0.95054">
        <ele>461</ele>
        <time>2022-03-26T16:03:18+01:00</time>
      </trkpt>
      <trkpt lat="43.04007" lon="0.95033">
        <ele>463</ele>
        <time>2022-03-26T16:03:38+01:00</time>
      </trkpt>
      <trkpt lat="43.03992" lon="0.95017">
        <ele>464</ele>
        <time>2022-03-26T16:03:52+01:00</time>
      </trkpt>
      <trkpt lat="43.03977" lon="0.94999">
        <ele>466</ele>
        <time>2022-03-26T16:04:10+01:00</time>
      </trkpt>
      <trkpt lat="43.03961" lon="0.94984">
        <ele>462</ele>
        <time>2022-03-26T16:04:30+01:00</time>
      </trkpt>
      <trkpt lat="43.03944" lon="0.94974">
        <ele>465</ele>
        <time>2022-03-26T16:04:50+01:00</time>
      </trkpt>
      <trkpt lat="43.03931" lon="0.94993">
        <ele>466</ele>
        <time>2022-03-26T16:05:10+01:00</time>
      </trkpt>
      <trkpt lat="43.03917" lon="0.94974">
        <ele>467</ele>
        <time>2022-03-26T16:05:29+01:00</time>
      </trkpt>
      <trkpt lat="43.03901" lon="0.94962">
        <ele>467</ele>
        <time>2022-03-26T16:05:54+01:00</time>
      </trkpt>
      <trkpt lat="43.03883" lon="0.94968">
        <ele>469</ele>
        <time>2022-03-26T16:06:23+01:00</time>
      </trkpt>
      <trkpt lat="43.03865" lon="0.94957">
        <ele>482</ele>
        <time>2022-03-26T16:06:46+01:00</time>
      </trkpt>
      <trkpt lat="43.0385" lon="0.9494">
        <ele>526</ele>
        <time>2022-03-26T16:12:20+01:00</time>
      </trkpt>
      <trkpt lat="43.03832" lon="0.94931">
        <ele>528</ele>
        <time>2022-03-26T16:12:30+01:00</time>
      </trkpt>
      <trkpt lat="43.03813" lon="0.94921">
        <ele>530</ele>
        <time>2022-03-26T16:12:45+01:00</time>
      </trkpt>
      <trkpt lat="43.03794" lon="0.94914">
        <ele>534</ele>
        <time>2022-03-26T16:13:00+01:00</time>
      </trkpt>
      <trkpt lat="43.03776" lon="0.94911">
        <ele>533</ele>
        <time>2022-03-26T16:13:16+01:00</time>
      </trkpt>
      <trkpt lat="43.03758" lon="0.94901">
        <ele>534</ele>
        <time>2022-03-26T16:13:34+01:00</time>
      </trkpt>
      <trkpt lat="43.0374" lon="0.94892">
        <ele>533</ele>
        <time>2022-03-26T16:13:54+01:00</time>
      </trkpt>
      <trkpt lat="43.03722" lon="0.94885">
        <ele>475</ele>
        <time>2022-03-26T16:14:14+01:00</time>
      </trkpt>
      <trkpt lat="43.03703" lon="0.94877">
        <ele>480</ele>
        <time>2022-03-26T16:14:34+01:00</time>
      </trkpt>
      <trkpt lat="43.03684" lon="0.94869">
        <ele>475</ele>
        <time>2022-03-26T16:14:54+01:00</time>
      </trkpt>
      <trkpt lat="43.03666" lon="0.94859">
        <ele>480</ele>
        <time>2022-03-26T16:15:15+01:00</time>
      </trkpt>
      <trkpt lat="43.03646" lon="0.94854">
        <ele>479</ele>
        <time>2022-03-26T16:15:35+01:00</time>
      </trkpt>
      <trkpt lat="43.03628" lon="0.94852">
        <ele>485</ele>
        <time>2022-03-26T16:15:50+01:00</time>
      </trkpt>
      <trkpt lat="43.03594" lon="0.94876">
        <ele>495</ele>
        <time>2022-03-26T16:16:28+01:00</time>
      </trkpt>
      <trkpt lat="43.03578" lon="0.94891">
        <ele>492</ele>
        <time>2022-03-26T16:16:45+01:00</time>
      </trkpt>
      <trkpt lat="43.03563" lon="0.94907">
        <ele>494</ele>
        <time>2022-03-26T16:17:02+01:00</time>
      </trkpt>
      <trkpt lat="43.03545" lon="0.94918">
        <ele>509</ele>
        <time>2022-03-26T16:17:24+01:00</time>
      </trkpt>
      <trkpt lat="43.03527" lon="0.94915">
        <ele>516</ele>
        <time>2022-03-26T16:17:46+01:00</time>
      </trkpt>
      <trkpt lat="43.03512" lon="0.94899">
        <ele>519</ele>
        <time>2022-03-26T16:18:16+01:00</time>
      </trkpt>
      <trkpt lat="43.03512" lon="0.94873">
        <ele>490</ele>
        <time>2022-03-26T16:19:54+01:00</time>
      </trkpt>
      <trkpt lat="43.03512" lon="0.94846">
        <ele>490</ele>
        <time>2022-03-26T16:20:07+01:00</time>
      </trkpt>
      <trkpt lat="43.03518" lon="0.94821">
        <ele>549</ele>
        <time>2022-03-26T16:20:28+01:00</time>
      </trkpt>
      <trkpt lat="43.03503" lon="0.94806">
        <ele>477</ele>
        <time>2022-03-26T16:20:54+01:00</time>
      </trkpt>
      <trkpt lat="43.03484" lon="0.94795">
        <ele>477</ele>
        <time>2022-03-26T16:21:14+01:00</time>
      </trkpt>
      <trkpt lat="43.03466" lon="0.9479">
        <ele>484</ele>
        <time>2022-03-26T16:21:33+01:00</time>
      </trkpt>
      <trkpt lat="43.03447" lon="0.94783">
        <ele>519</ele>
        <time>2022-03-26T16:21:51+01:00</time>
      </trkpt>
      <trkpt lat="43.03427" lon="0.94792">
        <ele>519</ele>
        <time>2022-03-26T16:22:13+01:00</time>
      </trkpt>
      <trkpt lat="43.0341" lon="0.948">
        <ele>534</ele>
        <time>2022-03-26T16:22:31+01:00</time>
      </trkpt>
      <trkpt lat="43.03389" lon="0.948">
        <ele>563</ele>
        <time>2022-03-26T16:22:49+01:00</time>
      </trkpt>
      <trkpt lat="43.03371" lon="0.94806">
        <ele>562</ele>
        <time>2022-03-26T16:23:06+01:00</time>
      </trkpt>
      <trkpt lat="43.03352" lon="0.94812">
        <ele>561</ele>
        <time>2022-03-26T16:23:24+01:00</time>
      </trkpt>
      <trkpt lat="43.03332" lon="0.94811">
        <ele>559</ele>
        <time>2022-03-26T16:23:42+01:00</time>
      </trkpt>
      <trkpt lat="43.03316" lon="0.94795">
        <ele>509</ele>
        <time>2022-03-26T16:24:01+01:00</time>
      </trkpt>
      <trkpt lat="43.03302" lon="0.94778">
        <ele>510</ele>
        <time>2022-03-26T16:24:15+01:00</time>
      </trkpt>
      <trkpt lat="43.03287" lon="0.94762">
        <ele>509</ele>
        <time>2022-03-26T16:24:36+01:00</time>
      </trkpt>
      <trkpt lat="43.03272" lon="0.94747">
        <ele>508</ele>
        <time>2022-03-26T16:24:52+01:00</time>
      </trkpt>
      <trkpt lat="43.03257" lon="0.94729">
        <ele>473</ele>
        <time>2022-03-26T16:25:28+01:00</time>
      </trkpt>
      <trkpt lat="43.0324" lon="0.94743">
        <ele>523</ele>
        <time>2022-03-26T16:25:47+01:00</time>
      </trkpt>
      <trkpt lat="43.03223" lon="0.94753">
        <ele>553</ele>
        <time>2022-03-26T16:26:03+01:00</time>
      </trkpt>
      <trkpt lat="43.03205" lon="0.94759">
        <ele>536</ele>
        <time>2022-03-26T16:26:17+01:00</time>
      </trkpt>
      <trkpt lat="43.03187" lon="0.94767">
        <ele>537</ele>
        <time>2022-03-26T16:26:36+01:00</time>
      </trkpt>
      <trkpt lat="43.03168" lon="0.94774">
        <ele>549</ele>
        <time>2022-03-26T16:26:56+01:00</time>
      </trkpt>
      <trkpt lat="43.03158" lon="0.94795">
        <ele>524</ele>
        <time>2022-03-26T16:27:16+01:00</time>
      </trkpt>
      <trkpt lat="43.03144" lon="0.94813">
        <ele>546</ele>
        <time>2022-03-26T16:27:29+01:00</time>
      </trkpt>
      <trkpt lat="43.03138" lon="0.94838">
        <ele>530</ele>
        <time>2022-03-26T16:27:44+01:00</time>
      </trkpt>
      <trkpt lat="43.03134" lon="0.94865">
        <ele>530</ele>
        <time>2022-03-26T16:28:01+01:00</time>
      </trkpt>
      <trkpt lat="43.03134" lon="0.94892">
        <ele>530</ele>
        <time>2022-03-26T16:28:24+01:00</time>
      </trkpt>
      <trkpt lat="43.03129" lon="0.94919">
        <ele>531</ele>
        <time>2022-03-26T16:29:19+01:00</time>
      </trkpt>
      <trkpt lat="43.03126" lon="0.94945">
        <ele>531</ele>
        <time>2022-03-26T16:29:36+01:00</time>
      </trkpt>
      <trkpt lat="43.03114" lon="0.94966">
        <ele>538</ele>
        <time>2022-03-26T16:30:34+01:00</time>
      </trkpt>
      <trkpt lat="43.03099" lon="0.94985">
        <ele>540</ele>
        <time>2022-03-26T16:31:11+01:00</time>
      </trkpt>
      <trkpt lat="43.0309" lon="0.95007">
        <ele>537</ele>
        <time>2022-03-26T16:35:37+01:00</time>
      </trkpt>
      <trkpt lat="43.03095" lon="0.95036">
        <ele>539</ele>
        <time>2022-03-26T16:35:52+01:00</time>
      </trkpt>
      <trkpt lat="43.03099" lon="0.9506">
        <ele>543</ele>
        <time>2022-03-26T16:36:08+01:00</time>
      </trkpt>
      <trkpt lat="43.03101" lon="0.95087">
        <ele>543</ele>
        <time>2022-03-26T16:36:28+01:00</time>
      </trkpt>
      <trkpt lat="43.03098" lon="0.95112">
        <ele>554</ele>
        <time>2022-03-26T16:36:46+01:00</time>
      </trkpt>
      <trkpt lat="43.03098" lon="0.95138">
        <ele>553</ele>
        <time>2022-03-26T16:37:05+01:00</time>
      </trkpt>
      <trkpt lat="43.03093" lon="0.95164">
        <ele>547</ele>
        <time>2022-03-26T16:37:32+01:00</time>
      </trkpt>
      <trkpt lat="43.03092" lon="0.95189">
        <ele>540</ele>
        <time>2022-03-26T16:37:55+01:00</time>
      </trkpt>
      <trkpt lat="43.03072" lon="0.95183">
        <ele>543</ele>
        <time>2022-03-26T16:38:12+01:00</time>
      </trkpt>
      <trkpt lat="43.03053" lon="0.95178">
        <ele>542</ele>
        <time>2022-03-26T16:38:28+01:00</time>
      </trkpt>
      <trkpt lat="43.03035" lon="0.95186">
        <ele>471</ele>
        <time>2022-03-26T16:38:43+01:00</time>
      </trkpt>
      <trkpt lat="43.03015" lon="0.95193">
        <ele>471</ele>
        <time>2022-03-26T16:39:04+01:00</time>
      </trkpt>
      <trkpt lat="43.02998" lon="0.95202">
        <ele>479</ele>
        <time>2022-03-26T16:39:18+01:00</time>
      </trkpt>
      <trkpt lat="43.0298" lon="0.95205">
        <ele>481</ele>
        <time>2022-03-26T16:39:43+01:00</time>
      </trkpt>
      <trkpt lat="43.02961" lon="0.95218">
        <ele>485</ele>
        <time>2022-03-26T16:39:56+01:00</time>
      </trkpt>
      <trkpt lat="43.02958" lon="0.95191">
        <ele>486</ele>
        <time>2022-03-26T16:40:23+01:00</time>
      </trkpt>
      <trkpt lat="43.02951" lon="0.95168">
        <ele>485</ele>
        <time>2022-03-26T16:40:36+01:00</time>
      </trkpt>
      <trkpt lat="43.02919" lon="0.95139">
        <ele>478</ele>
        <time>2022-03-26T16:41:20+01:00</time>
      </trkpt>
      <trkpt lat="43.02899" lon="0.95149">
        <ele>483</ele>
        <time>2022-03-26T16:41:53+01:00</time>
      </trkpt>
      <trkpt lat="43.02881" lon="0.95146">
        <ele>531</ele>
        <time>2022-03-26T16:42:25+01:00</time>
      </trkpt>
      <trkpt lat="43.02863" lon="0.95153">
        <ele>510</ele>
        <time>2022-03-26T16:42:47+01:00</time>
      </trkpt>
      <trkpt lat="43.02848" lon="0.95135">
        <ele>507</ele>
        <time>2022-03-26T16:43:09+01:00</time>
      </trkpt>
      <trkpt lat="43.0283" lon="0.95124">
        <ele>511</ele>
        <time>2022-03-26T16:43:27+01:00</time>
      </trkpt>
      <trkpt lat="43.02815" lon="0.95108">
        <ele>509</ele>
        <time>2022-03-26T16:43:45+01:00</time>
      </trkpt>
      <trkpt lat="43.02803" lon="0.95088">
        <ele>511</ele>
        <time>2022-03-26T16:44:02+01:00</time>
      </trkpt>
      <trkpt lat="43.02798" lon="0.95062">
        <ele>510</ele>
        <time>2022-03-26T16:44:17+01:00</time>
      </trkpt>
      <trkpt lat="43.02788" lon="0.95038">
        <ele>510</ele>
        <time>2022-03-26T16:44:30+01:00</time>
      </trkpt>
      <trkpt lat="43.02775" lon="0.95021">
        <ele>511</ele>
        <time>2022-03-26T16:45:00+01:00</time>
      </trkpt>
      <trkpt lat="43.02758" lon="0.95014">
        <ele>509</ele>
        <time>2022-03-26T16:45:25+01:00</time>
      </trkpt>
      <trkpt lat="43.0274" lon="0.95009">
        <ele>511</ele>
        <time>2022-03-26T16:45:50+01:00</time>
      </trkpt>
      <trkpt lat="43.0269" lon="0.94974">
        <ele>541</ele>
        <time>2022-03-26T16:46:45+01:00</time>
      </trkpt>
      <trkpt lat="43.02671" lon="0.94966">
        <ele>541</ele>
        <time>2022-03-26T16:47:10+01:00</time>
      </trkpt>
      <trkpt lat="43.02654" lon="0.94957">
        <ele>543</ele>
        <time>2022-03-26T16:47:34+01:00</time>
      </trkpt>
      <trkpt lat="43.02644" lon="0.9498">
        <ele>552</ele>
        <time>2022-03-26T16:49:54+01:00</time>
      </trkpt>
      <trkpt lat="43.02633" lon="0.95002">
        <ele>549</ele>
        <time>2022-03-26T16:50:14+01:00</time>
      </trkpt>
      <trkpt lat="43.02623" lon="0.95026">
        <ele>541</ele>
        <time>2022-03-26T16:50:33+01:00</time>
      </trkpt>
      <trkpt lat="43.02608" lon="0.95041">
        <ele>545</ele>
        <time>2022-03-26T16:50:50+01:00</time>
      </trkpt>
      <trkpt lat="43.02592" lon="0.95055">
        <ele>552</ele>
        <time>2022-03-26T16:51:05+01:00</time>
      </trkpt>
      <trkpt lat="43.02575" lon="0.95068">
        <ele>542</ele>
        <time>2022-03-26T16:51:25+01:00</time>
      </trkpt>
      <trkpt lat="43.02558" lon="0.9508">
        <ele>535</ele>
        <time>2022-03-26T16:52:33+01:00</time>
      </trkpt>
      <trkpt lat="43.02545" lon="0.95098">
        <ele>536</ele>
        <time>2022-03-26T16:53:03+01:00</time>
      </trkpt>
      <trkpt lat="43.02531" lon="0.95118">
        <ele>537</ele>
        <time>2022-03-26T16:53:23+01:00</time>
      </trkpt>
      <trkpt lat="43.02515" lon="0.95131">
        <ele>538</ele>
        <time>2022-03-26T16:53:39+01:00</time>
      </trkpt>
      <trkpt lat="43.02508" lon="0.95157">
        <ele>538</ele>
        <time>2022-03-26T16:53:56+01:00</time>
      </trkpt>
      <trkpt lat="43.02503" lon="0.95182">
        <ele>543</ele>
        <time>2022-03-26T16:54:12+01:00</time>
      </trkpt>
      <trkpt lat="43.0251" lon="0.95205">
        <ele>536</ele>
        <time>2022-03-26T16:54:37+01:00</time>
      </trkpt>
      <trkpt lat="43.02507" lon="0.95231">
        <ele>534</ele>
        <time>2022-03-26T16:54:58+01:00</time>
      </trkpt>
      <trkpt lat="43.02492" lon="0.95248">
        <ele>533</ele>
        <time>2022-03-26T16:55:18+01:00</time>
      </trkpt>
      <trkpt lat="43.02483" lon="0.95272">
        <ele>533</ele>
        <time>2022-03-26T16:55:40+01:00</time>
      </trkpt>
      <trkpt lat="43.0247" lon="0.9529">
        <ele>535</ele>
        <time>2022-03-26T16:56:00+01:00</time>
      </trkpt>
      <trkpt lat="43.02463" lon="0.95316">
        <ele>533</ele>
        <time>2022-03-26T16:56:19+01:00</time>
      </trkpt>
      <trkpt lat="43.02476" lon="0.95335">
        <ele>532</ele>
        <time>2022-03-26T16:56:33+01:00</time>
      </trkpt>
      <trkpt lat="43.02494" lon="0.95348">
        <ele>530</ele>
        <time>2022-03-26T16:56:50+01:00</time>
      </trkpt>
      <trkpt lat="43.02512" lon="0.9536">
        <ele>528</ele>
        <time>2022-03-26T16:57:07+01:00</time>
      </trkpt>
      <trkpt lat="43.02517" lon="0.95385">
        <ele>527</ele>
        <time>2022-03-26T16:57:27+01:00</time>
      </trkpt>
      <trkpt lat="43.02504" lon="0.95404">
        <ele>527</ele>
        <time>2022-03-26T16:57:45+01:00</time>
      </trkpt>
      <trkpt lat="43.02495" lon="0.95429">
        <ele>528</ele>
        <time>2022-03-26T16:58:05+01:00</time>
      </trkpt>
      <trkpt lat="43.02492" lon="0.95453">
        <ele>527</ele>
        <time>2022-03-26T16:58:19+01:00</time>
      </trkpt>
      <trkpt lat="43.02497" lon="0.95477">
        <ele>529</ele>
        <time>2022-03-26T16:59:32+01:00</time>
      </trkpt>
      <trkpt lat="43.02486" lon="0.95501">
        <ele>527</ele>
        <time>2022-03-26T16:59:49+01:00</time>
      </trkpt>
      <trkpt lat="43.0248" lon="0.95527">
        <ele>528</ele>
        <time>2022-03-26T17:00:05+01:00</time>
      </trkpt>
      <trkpt lat="43.02475" lon="0.95552">
        <ele>527</ele>
        <time>2022-03-26T17:00:22+01:00</time>
      </trkpt>
      <trkpt lat="43.02463" lon="0.95574">
        <ele>527</ele>
        <time>2022-03-26T17:00:45+01:00</time>
      </trkpt>
      <trkpt lat="43.02447" lon="0.95562">
        <ele>526</ele>
        <time>2022-03-26T17:01:09+01:00</time>
      </trkpt>
      <trkpt lat="43.02435" lon="0.95539">
        <ele>520</ele>
        <time>2022-03-26T17:01:27+01:00</time>
      </trkpt>
      <trkpt lat="43.02423" lon="0.95517">
        <ele>501</ele>
        <time>2022-03-26T17:01:46+01:00</time>
      </trkpt>
      <trkpt lat="43.02408" lon="0.95498">
        <ele>501</ele>
        <time>2022-03-26T17:02:04+01:00</time>
      </trkpt>
      <trkpt lat="43.0239" lon="0.95498">
        <ele>498</ele>
        <time>2022-03-26T17:02:27+01:00</time>
      </trkpt>
      <trkpt lat="43.02372" lon="0.95493">
        <ele>500</ele>
        <time>2022-03-26T17:02:46+01:00</time>
      </trkpt>
      <trkpt lat="43.02359" lon="0.95473">
        <ele>501</ele>
        <time>2022-03-26T17:03:05+01:00</time>
      </trkpt>
      <trkpt lat="43.02349" lon="0.95452">
        <ele>500</ele>
        <time>2022-03-26T17:03:24+01:00</time>
      </trkpt>
      <trkpt lat="43.02339" lon="0.9543">
        <ele>500</ele>
        <time>2022-03-26T17:03:43+01:00</time>
      </trkpt>
      <trkpt lat="43.02328" lon="0.95407">
        <ele>499</ele>
        <time>2022-03-26T17:04:03+01:00</time>
      </trkpt>
      <trkpt lat="43.0231" lon="0.95396">
        <ele>500</ele>
        <time>2022-03-26T17:04:21+01:00</time>
      </trkpt>
      <trkpt lat="43.02294" lon="0.95411">
        <ele>501</ele>
        <time>2022-03-26T17:04:37+01:00</time>
      </trkpt>
      <trkpt lat="43.02277" lon="0.95423">
        <ele>501</ele>
        <time>2022-03-26T17:04:50+01:00</time>
      </trkpt>
      <trkpt lat="43.02262" lon="0.95436">
        <ele>501</ele>
        <time>2022-03-26T17:05:04+01:00</time>
      </trkpt>
      <trkpt lat="43.02253" lon="0.95459">
        <ele>502</ele>
        <time>2022-03-26T17:05:18+01:00</time>
      </trkpt>
      <trkpt lat="43.02243" lon="0.9548">
        <ele>502</ele>
        <time>2022-03-26T17:05:33+01:00</time>
      </trkpt>
      <trkpt lat="43.02224" lon="0.95486">
        <ele>502</ele>
        <time>2022-03-26T17:05:48+01:00</time>
      </trkpt>
      <trkpt lat="43.02205" lon="0.95492">
        <ele>502</ele>
        <time>2022-03-26T17:06:06+01:00</time>
      </trkpt>
      <trkpt lat="43.02187" lon="0.955">
        <ele>502</ele>
        <time>2022-03-26T17:06:23+01:00</time>
      </trkpt>
      <trkpt lat="43.02193" lon="0.95526">
        <ele>500</ele>
        <time>2022-03-26T17:08:41+01:00</time>
      </trkpt>
      <trkpt lat="43.02192" lon="0.95552">
        <ele>501</ele>
        <time>2022-03-26T17:08:55+01:00</time>
      </trkpt>
      <trkpt lat="43.02172" lon="0.95555">
        <ele>500</ele>
        <time>2022-03-26T17:09:13+01:00</time>
      </trkpt>
      <trkpt lat="43.02154" lon="0.95563">
        <ele>501</ele>
        <time>2022-03-26T17:09:44+01:00</time>
      </trkpt>
      <trkpt lat="43.02136" lon="0.95553">
        <ele>500</ele>
        <time>2022-03-26T17:10:05+01:00</time>
      </trkpt>
      <trkpt lat="43.02121" lon="0.95533">
        <ele>500</ele>
        <time>2022-03-26T17:10:26+01:00</time>
      </trkpt>
      <trkpt lat="43.02102" lon="0.9553">
        <ele>501</ele>
        <time>2022-03-26T17:10:49+01:00</time>
      </trkpt>
      <trkpt lat="43.02084" lon="0.95534">
        <ele>501</ele>
        <time>2022-03-26T17:11:16+01:00</time>
      </trkpt>
      <trkpt lat="43.02064" lon="0.95533">
        <ele>501</ele>
        <time>2022-03-26T17:11:35+01:00</time>
      </trkpt>
      <trkpt lat="43.02045" lon="0.95529">
        <ele>496</ele>
        <time>2022-03-26T17:11:57+01:00</time>
      </trkpt>
      <trkpt lat="43.02028" lon="0.9552">
        <ele>496</ele>
        <time>2022-03-26T17:12:18+01:00</time>
      </trkpt>
      <trkpt lat="43.02009" lon="0.95516">
        <ele>496</ele>
        <time>2022-03-26T17:12:39+01:00</time>
      </trkpt>
      <trkpt lat="43.01989" lon="0.95517">
        <ele>496</ele>
        <time>2022-03-26T17:13:01+01:00</time>
      </trkpt>
      <trkpt lat="43.0197" lon="0.95518">
        <ele>496</ele>
        <time>2022-03-26T17:13:18+01:00</time>
      </trkpt>
      <trkpt lat="43.0195" lon="0.95519">
        <ele>496</ele>
        <time>2022-03-26T17:13:38+01:00</time>
      </trkpt>
      <trkpt lat="43.01931" lon="0.95516">
        <ele>496</ele>
        <time>2022-03-26T17:13:53+01:00</time>
      </trkpt>
      <trkpt lat="43.01912" lon="0.95513">
        <ele>496</ele>
        <time>2022-03-26T17:14:06+01:00</time>
      </trkpt>
      <trkpt lat="43.01893" lon="0.95507">
        <ele>496</ele>
        <time>2022-03-26T17:14:24+01:00</time>
      </trkpt>
      <trkpt lat="43.01873" lon="0.95501">
        <ele>496</ele>
        <time>2022-03-26T17:14:42+01:00</time>
      </trkpt>
      <trkpt lat="43.01854" lon="0.95499">
        <ele>499</ele>
        <time>2022-03-26T17:14:59+01:00</time>
      </trkpt>
      <trkpt lat="43.01833" lon="0.95502">
        <ele>496</ele>
        <time>2022-03-26T17:15:25+01:00</time>
      </trkpt>
      <trkpt lat="43.01825" lon="0.95479">
        <ele>496</ele>
        <time>2022-03-26T17:16:54+01:00</time>
      </trkpt>
      <trkpt lat="43.01803" lon="0.9547">
        <ele>496</ele>
        <time>2022-03-26T17:17:33+01:00</time>
      </trkpt>
    </trkseg>
  </trk>
</gpx>